메인 페이지
METAR-TAF:

METAR-TAF

공항 :

팔라우 국제공항

코로르, 바벨다오브 섬, 팔라우

위도: 07-22N, 경도: 134-32E, 고도: 54m

현재 날씨관측

예보는 23분 전, 02:50시(UTC)에 발표되었습니다.
서북서3kt
온도 27°C
습도 84%
기압 1009 hPa
시정: 17.7km
고도 1500ft 상공 구름 많음, 적란운.
고도 11000ft 상공 구름 많음
고도 30000ft 상공 구름 많음
시계 내 소나기

METAR: PTRO 210250Z 30003KT 11SM VCSH BKN015CB BKN110 BKN300 27/24 A2981 RMK VCSH SW-NW CB ALQDS

시각: 12:13 (03:13 UTC)

예보

예보는 3 시간 45분 전, 23:28시(UTC)에 발표되었습니다.
예보 대상 시간: 21일 00시부터 21일 24시까지 (UTC)
동북동5kt
시정: 10km
고도 1600ft 상공 구름 보통
고도 12000ft 상공 구름 보통
시계 내 소나기

TAF: PTRO 202328Z 2100/2124 07005KT P6SM VCSH SCT016 SCT120

4,000개 이상의 공항 관측 자료 및 예보 (METAR 및 TAF 보고).

지도상에서 검색 가능한 기상관측소가 노란 점과 빨간 점으로 표시되어 있습니다.

기상관측소 명을 보려면 표시 위로 마우스를 이동하세요.

날씨 관측과 예보를 보려면 클릭하세요.

지도 변경 : 확대하려면 엑스 표시가 있는 녹색 버튼, 축소하려면 빼기 표시가 있는 녹색 버튼, 다음 페이지의 지도를 보려면 녹색 화살표를 클릭하세요.


METAR-TAF: